Arletta, WA

10:36 PM PDT on October 30, 2014 (GMT -0700)
Cromwell Beach | Change Station
CLOSE
Current Station
Personal Weather Station
Location: Gig Harbor, WA
Elevation: 15 ft
Nearby Weather Stations

Elev 15 ft 47.27 °N, 122.62 °W | Updated 1 minute ago

Rain
Rain
55.0 °F
Feels Like 55.0 °F
N
0.0
Wind Variable Wind from SSW
Gusts 3.0 mph

Today
High -- | Low -- °F
--% Chance of Precip.
Yesterday
High -- | Low -- °F
Precip. -- in
7:50 AM 5:56 PM
First Quarter, 51% visible
Pressure 29.78 in
Visibility 10.0 miles
Clouds Overcast 3600 ft
Dew Point 54 °F
Humidity 95%
Rainfall 0.35 in
Snow Depth Not available.
UV 0 out of 12
Pollen .30 out of 12
Air Quality Not available.
Flu Activity Not available.
METAR KTIW 310453Z AUTO 18005KT 10SM OVC036 12/11 A2977 RMK AO2 RAE17 SLP082 P0000 T01220111

More Conditions Fewer Conditions

Pressure 29.78 in
Visibility 10.0 miles
Clouds Overcast 3600 ft
Dew Point 54 °F
Humidity 95%
Rainfall 0.35 in
Snow Depth Not available.
UV 0 out of 12
Pollen .30 out of 12
Air Quality Not available.
Flu Activity Not available.
METAR KTIW 310453Z AUTO 18005KT 10SM OVC036 12/11 A2977 RMK AO2 RAE17 SLP082 P0000 T01220111

More Conditions Fewer Conditions

10-Day Weather Forecast

Almanac

Astronomy

Oct. 30, 2014 Rise Set
Actual Time
Civil Twilight
Nautical Twilight
Astronomical Twilight
Moon
Length of Visible Light
Length of Day
Tomorrow will be .
, % of the Moon is Illuminated

Today's Extremes

State Highs State Lows

Community

WunderPhotos

Upload Photos

1,766,569 photos uploaded!

WunderBlogs® & News

Nearby

Air Quality

  Air Quality AQ Index Pollutant
Not available.

Snow Depth

Station Depth Elevation

Earthquake Activity

City Distance Mag. Time & Date
Minimum magnitude displayed is 2.5.

Coastal Water Temperatures

Place Temperature

Nearby Weather Stations